Time;durP1;ratioP1;P1;durP2;ratioP2;P2;SDS_P1;SDS_P2;PMS_P1;PMS_P2;Temp;Humidity;BMP_temperature;BMP_pressure;BME280_temperature;BME280_humidity;BME280_pressure;Samples;Min_cycle;Max_cycle;Signal;HPM_P1;HPM_P2
2021/09/17 00:01:33;;;;;;;2.72;2.15;;;;;;;;;;4682071;30;20582;-86
2021/09/17 00:04:00;;;;;;;2.88;1.77;;;;;;;;;;4682037;30;20225;-87
2021/09/17 00:06:29;;;;;;;1.80;1.70;;;;;;;;;;4681740;30;20633;-86
2021/09/17 00:08:57;;;;;;;2.40;2.20;;;;;;;;;;4681811;30;20246;-86
2021/09/17 00:11:24;;;;;;;1.90;1.80;;;;;;;;;;4682070;30;20594;-87
2021/09/17 00:13:52;;;;;;;1.95;1.75;;;;;;;;;;4681795;30;20570;-86
2021/09/17 00:16:20;;;;;;;1.70;1.60;;;;;;;;;;4682013;30;20196;-86
2021/09/17 00:18:47;;;;;;;2.10;1.88;;;;;;;;;;4682164;30;20558;-85
2021/09/17 00:21:15;;;;;;;1.95;1.85;;;;;;;;;;4682063;30;20286;-87
2021/09/17 00:23:43;;;;;;;1.55;1.45;;;;;;;;;;4681829;30;20220;-86
2021/09/17 00:26:11;;;;;;;1.20;1.20;;;;;;;;;;4683454;30;20211;-84
2021/09/17 00:28:38;;;;;;;1.80;1.70;;;;;;;;;;4685167;30;20695;-86
2021/09/17 00:31:06;;;;;;;1.70;1.60;;;;;;;;;;4685081;30;20218;-85
2021/09/17 00:33:34;;;;;;;1.40;1.30;;;;;;;;;;4684962;30;20222;-86
2021/09/17 00:36:02;;;;;;;1.60;1.50;;;;;;;;;;4684019;30;20215;-86
2021/09/17 00:38:29;;;;;;;1.95;1.83;;;;;;;;;;4684418;30;20275;-86
2021/09/17 00:40:58;;;;;;;1.58;1.48;;;;;;;;;;4684898;30;20215;-87
2021/09/17 00:43:26;;;;;;;1.77;1.55;;;;;;;;;;4684749;30;20215;-87
2021/09/17 00:45:53;;;;;;;1.77;1.67;;;;;;;;;;4684948;30;20199;-86
2021/09/17 00:48:21;;;;;;;1.80;1.50;;;;;;;;;;4684515;30;20594;-87
2021/09/17 00:50:48;;;;;;;1.42;1.20;;;;;;;;;;4684631;30;20223;-86
2021/09/17 00:53:16;;;;;;;1.20;1.20;;;;;;;;;;4684883;30;20209;-86
2021/09/17 00:55:43;;;;;;;1.05;1.05;;;;;;;;;;4684598;30;20304;-87
2021/09/17 00:58:12;;;;;;;1.52;1.40;;;;;;;;;;4684581;30;20234;-86
2021/09/17 01:00:40;;;;;;;1.70;1.60;;;;;;;;;;4684637;30;20674;-87
2021/09/17 01:03:08;;;;;;;3.33;1.90;;;;;;;;;;4684436;30;20227;-86
2021/09/17 01:05:36;;;;;;;1.55;1.45;;;;;;;;;;4684317;30;20215;-86
2021/09/17 01:08:03;;;;;;;2.88;1.88;;;;;;;;;;4684583;30;20239;-87
2021/09/17 01:10:31;;;;;;;1.42;1.33;;;;;;;;;;4700763;30;20222;-86
2021/09/17 01:12:59;;;;;;;1.60;1.50;;;;;;;;;;4701642;30;20195;-86
2021/09/17 01:15:28;;;;;;;4.32;2.38;;;;;;;;;;4701706;30;20206;-85
2021/09/17 01:17:55;;;;;;;1.85;1.65;;;;;;;;;;4701589;30;20238;-86
2021/09/17 01:20:23;;;;;;;3.28;1.75;;;;;;;;;;4701093;30;20678;-85
2021/09/17 01:22:53;;;;;;;1.48;1.38;;;;;;;;;;4701477;30;20214;-86
2021/09/17 01:25:23;;;;;;;1.27;1.17;;;;;;;;;;4700287;30;20584;-86
2021/09/17 01:27:53;;;;;;;1.58;1.20;;;;;;;;;;4697874;30;20241;-86
2021/09/17 01:30:22;;;;;;;4.05;2.35;;;;;;;;;;4701230;30;20215;-87
2021/09/17 01:32:50;;;;;;;1.25;1.20;;;;;;;;;;4701252;30;20651;-86
2021/09/17 01:35:20;;;;;;;1.45;1.35;;;;;;;;;;4700173;30;20218;-86
2021/09/17 01:37:49;;;;;;;1.73;1.63;;;;;;;;;;4691802;30;20246;-82
2021/09/17 01:40:19;;;;;;;2.10;1.80;;;;;;;;;;4684208;30;20215;-85
2021/09/17 01:42:47;;;;;;;1.80;1.63;;;;;;;;;;4684211;30;20219;-86
2021/09/17 01:45:15;;;;;;;2.05;1.95;;;;;;;;;;4683310;30;20195;-85
2021/09/17 01:47:43;;;;;;;1.60;1.50;;;;;;;;;;4684026;30;20235;-85
2021/09/17 01:50:11;;;;;;;2.00;1.80;;;;;;;;;;4683985;30;20246;-86
2021/09/17 01:52:39;;;;;;;1.40;1.33;;;;;;;;;;4684766;30;20582;-85
2021/09/17 01:55:08;;;;;;;1.50;1.40;;;;;;;;;;4685419;30;20209;-85
2021/09/17 01:57:37;;;;;;;1.63;1.52;;;;;;;;;;4685149;30;20235;-86
2021/09/17 02:00:06;;;;;;;1.58;1.48;;;;;;;;;;4718498;30;20218;-86
2021/09/17 02:02:33;;;;;;;1.27;1.17;;;;;;;;;;4719483;30;20193;-84
2021/09/17 02:05:01;;;;;;;1.70;1.60;;;;;;;;;;4718695;30;20232;-86
2021/09/17 02:07:29;;;;;;;1.30;1.20;;;;;;;;;;4718384;30;20241;-86
2021/09/17 02:09:57;;;;;;;1.10;1.10;;;;;;;;;;4718335;30;20717;-85
2021/09/17 02:12:25;;;;;;;1.50;1.40;;;;;;;;;;4715157;30;20214;-86
2021/09/17 02:14:54;;;;;;;1.13;1.13;;;;;;;;;;4696214;30;20204;-86
2021/09/17 02:17:26;;;;;;;3.13;2.83;;;;;;;;;;4692433;30;20590;-86
2021/09/17 02:19:54;;;;;;;3.30;3.00;;;;;;;;;;4686883;30;20653;-86
2021/09/17 02:22:21;;;;;;;2.08;1.98;;;;;;;;;;4683627;30;20574;-86
2021/09/17 02:24:49;;;;;;;1.70;1.60;;;;;;;;;;4683434;30;20690;-86
2021/09/17 02:27:16;;;;;;;7.95;2.17;;;;;;;;;;4683419;30;20239;-86
2021/09/17 02:29:44;;;;;;;1.30;1.30;;;;;;;;;;4683069;30;20246;-86
2021/09/17 02:32:13;;;;;;;2.28;1.92;;;;;;;;;;4688095;30;20199;-86
2021/09/17 02:34:41;;;;;;;1.38;1.30;;;;;;;;;;4700301;30;20729;-86
2021/09/17 02:37:08;;;;;;;1.60;1.50;;;;;;;;;;4700572;30;20264;-86
2021/09/17 02:39:39;;;;;;;1.50;1.40;;;;;;;;;;4700493;30;20210;-87
2021/09/17 02:42:08;;;;;;;1.30;1.20;;;;;;;;;;4700558;30;20191;-86
2021/09/17 02:44:36;;;;;;;1.10;1.10;;;;;;;;;;4700667;30;20253;-87
2021/09/17 02:47:04;;;;;;;1.60;1.50;;;;;;;;;;4699929;30;20226;-86
2021/09/17 02:49:34;;;;;;;1.63;1.20;;;;;;;;;;4698775;30;20346;-86
2021/09/17 02:52:03;;;;;;;2.55;1.98;;;;;;;;;;4700270;30;20223;-87
2021/09/17 02:54:30;;;;;;;1.30;1.25;;;;;;;;;;4700086;30;22665;-87
2021/09/17 02:56:58;;;;;;;1.20;1.20;;;;;;;;;;4700772;30;20238;-87
2021/09/17 02:59:25;;;;;;;3.03;1.85;;;;;;;;;;4700802;30;20589;-85
2021/09/17 03:01:53;;;;;;;4.70;4.30;;;;;;;;;;4700386;30;20739;-86
2021/09/17 03:04:20;;;;;;;9.32;8.43;;;;;;;;;;4701152;30;20214;-86
2021/09/17 03:06:50;;;;;;;4.82;4.38;;;;;;;;;;4700841;30;20238;-86
2021/09/17 03:09:18;;;;;;;4.53;2.72;;;;;;;;;;4700650;30;20211;-86
2021/09/17 03:11:46;;;;;;;2.88;2.67;;;;;;;;;;4703799;30;20256;-85
2021/09/17 03:14:13;;;;;;;1.63;1.52;;;;;;;;;;4700907;30;20241;-86
2021/09/17 03:16:41;;;;;;;1.80;1.70;;;;;;;;;;4699419;30;20706;-87
2021/09/17 03:19:09;;;;;;;1.40;1.30;;;;;;;;;;4702601;30;20662;-86
2021/09/17 03:21:36;;;;;;;1.77;1.67;;;;;;;;;;4708611;30;20296;-85
2021/09/17 03:24:06;;;;;;;1.20;1.20;;;;;;;;;;4712277;30;20203;-85
2021/09/17 03:26:34;;;;;;;1.45;1.45;;;;;;;;;;4701751;30;20205;-85
2021/09/17 03:29:02;;;;;;;1.65;1.55;;;;;;;;;;4686426;30;20219;-85
2021/09/17 03:31:30;;;;;;;2.63;1.80;;;;;;;;;;4684034;30;20239;-85
2021/09/17 03:33:59;;;;;;;2.40;2.20;;;;;;;;;;4683402;30;20283;-85
2021/09/17 03:36:27;;;;;;;2.25;2.05;;;;;;;;;;4684171;30;20214;-85
2021/09/17 03:38:55;;;;;;;2.38;1.98;;;;;;;;;;4697380;30;20238;-85
2021/09/17 03:41:24;;;;;;;2.53;1.98;;;;;;;;;;4702396;30;20294;-85
2021/09/17 03:43:53;;;;;;;1.80;1.70;;;;;;;;;;4702570;30;20268;-85
2021/09/17 03:46:21;;;;;;;2.30;2.20;;;;;;;;;;4701605;30;20195;-85
2021/09/17 03:48:49;;;;;;;3.08;2.78;;;;;;;;;;4701423;30;20199;-85
2021/09/17 03:51:16;;;;;;;2.67;2.47;;;;;;;;;;4701322;30;20326;-85
2021/09/17 03:53:44;;;;;;;2.90;2.70;;;;;;;;;;4701236;30;20294;-85
2021/09/17 03:56:12;;;;;;;2.00;1.90;;;;;;;;;;4701507;30;20225;-86
2021/09/17 03:58:41;;;;;;;3.15;2.00;;;;;;;;;;4701971;30;20714;-84
2021/09/17 04:01:08;;;;;;;1.95;1.85;;;;;;;;;;4705349;30;20225;-85
2021/09/17 04:03:36;;;;;;;2.00;1.90;;;;;;;;;;4707739;30;20305;-85
2021/09/17 04:06:04;;;;;;;1.77;1.67;;;;;;;;;;4705388;30;20273;-86
2021/09/17 04:08:58;;;;;;;1.63;1.52;;;;;;;;;;4702385;30;20270;-85
2021/09/17 04:11:25;;;;;;;1.33;1.25;;;;;;;;;;4703185;30;20234;-85
2021/09/17 04:13:54;;;;;;;1.73;1.63;;;;;;;;;;4705409;30;20221;-85
2021/09/17 04:16:21;;;;;;;1.70;1.60;;;;;;;;;;4706811;30;20205;-85
2021/09/17 04:18:49;;;;;;;1.90;1.80;;;;;;;;;;4695461;30;20692;-84
2021/09/17 04:21:16;;;;;;;1.70;1.60;;;;;;;;;;4699565;30;20195;-85
2021/09/17 04:23:43;;;;;;;1.67;1.58;;;;;;;;;;4712707;30;20214;-85
2021/09/17 04:26:11;;;;;;;1.30;1.20;;;;;;;;;;4714496;30;20205;-85
2021/09/17 04:28:38;;;;;;;1.05;1.05;;;;;;;;;;4707149;30;20256;-85
2021/09/17 04:34:54;;;;;;;1.52;1.42;;;;;;;;;;4704760;30;20261;-84
2021/09/17 04:37:21;;;;;;;2.05;1.88;;;;;;;;;;4702483;30;20238;-84
2021/09/17 04:39:49;;;;;;;2.72;2.53;;;;;;;;;;4688008;30;20211;-86
2021/09/17 04:42:16;;;;;;;2.55;2.33;;;;;;;;;;4693790;30;20753;-86
2021/09/17 04:44:44;;;;;;;3.30;3.05;;;;;;;;;;4709349;30;20211;-84
2021/09/17 04:47:12;;;;;;;2.50;2.30;;;;;;;;;;4707551;30;20234;-85
2021/09/17 04:49:39;;;;;;;2.75;2.55;;;;;;;;;;4707538;30;20743;-86
2021/09/17 04:52:08;;;;;;;2.88;2.67;;;;;;;;;;4708568;30;20240;-84
2021/09/17 04:54:38;;;;;;;1.80;1.60;;;;;;;;;;4709206;30;20238;-85
2021/09/17 04:57:06;;;;;;;2.50;2.30;;;;;;;;;;4707837;30;20369;-86
2021/09/17 04:59:34;;;;;;;2.10;2.00;;;;;;;;;;4699805;30;20715;-85
2021/09/17 05:02:01;;;;;;;2.35;2.20;;;;;;;;;;4704944;30;20297;-85
2021/09/17 05:04:29;;;;;;;1.70;1.60;;;;;;;;;;4705698;30;20318;-85
2021/09/17 05:06:58;;;;;;;1.48;1.42;;;;;;;;;;4702345;30;20326;-84
2021/09/17 05:09:30;;;;;;;2.50;2.30;;;;;;;;;;4701282;30;20226;-86
2021/09/17 05:11:58;;;;;;;3.38;3.08;;;;;;;;;;4703595;30;20278;-85
2021/09/17 05:14:26;;;;;;;1.95;1.75;;;;;;;;;;4702228;30;20277;-85
2021/09/17 05:16:53;;;;;;;2.28;2.08;;;;;;;;;;4709527;30;20241;-84
2021/09/17 05:19:23;;;;;;;2.10;2.00;;;;;;;;;;4704532;30;20207;-84
2021/09/17 05:21:52;;;;;;;2.03;1.90;;;;;;;;;;4703439;30;20210;-83
2021/09/17 05:24:27;;;;;;;1.60;1.50;;;;;;;;;;4701001;30;20261;-84
2021/09/17 05:26:54;;;;;;;2.17;2.08;;;;;;;;;;4694417;30;20242;-84
2021/09/17 05:29:37;;;;;;;1.60;1.50;;;;;;;;;;4702023;30;20199;-84
2021/09/17 05:32:06;;;;;;;1.90;1.80;;;;;;;;;;4705550;30;20245;-84
2021/09/17 05:34:35;;;;;;;1.73;1.63;;;;;;;;;;4686753;30;20294;-84
2021/09/17 05:37:04;;;;;;;2.22;2.03;;;;;;;;;;4699631;30;20778;-84
2021/09/17 05:39:59;;;;;;;2.13;2.00;;;;;;;;;;4668542;30;20207;-84
2021/09/17 05:42:26;;;;;;;1.52;1.42;;;;;;;;;;4667983;30;20228;-85
2021/09/17 05:45:02;;;;;;;2.20;2.10;;;;;;;;;;4667137;30;20223;-86
2021/09/17 05:47:36;;;;;;;1.80;1.70;;;;;;;;;;4666105;30;20251;-85
2021/09/17 05:50:05;;;;;;;2.22;2.03;;;;;;;;;;4663921;30;20328;-88
2021/09/17 05:52:32;;;;;;;1.50;1.40;;;;;;;;;;4664797;30;20700;-84
2021/09/17 05:55:01;;;;;;;1.55;1.45;;;;;;;;;;4665094;30;20207;-85
2021/09/17 05:57:29;;;;;;;1.50;1.40;;;;;;;;;;4666187;30;20319;-85
2021/09/17 05:59:56;;;;;;;1.90;1.80;;;;;;;;;;4666045;30;20695;-85
2021/09/17 06:02:25;;;;;;;2.00;1.90;;;;;;;;;;4666600;30;20231;-85
2021/09/17 06:04:52;;;;;;;2.63;1.67;;;;;;;;;;4666724;30;20223;-84
2021/09/17 06:07:21;;;;;;;2.88;2.67;;;;;;;;;;4666517;30;20239;-86
2021/09/17 06:09:54;;;;;;;3.05;2.75;;;;;;;;;;4666437;30;20216;-84
2021/09/17 06:12:26;;;;;;;2.05;1.85;;;;;;;;;;4666804;30;20226;-88
2021/09/17 06:14:56;;;;;;;2.33;2.13;;;;;;;;;;4666672;30;20224;-84
2021/09/17 06:17:23;;;;;;;2.00;1.90;;;;;;;;;;4666464;30;20240;-85
2021/09/17 06:19:51;;;;;;;2.53;2.33;;;;;;;;;;4666436;30;20669;-85
2021/09/17 06:22:18;;;;;;;2.42;2.22;;;;;;;;;;4666445;30;20311;-85
2021/09/17 06:24:46;;;;;;;1.80;1.70;;;;;;;;;;4666312;30;20204;-85
2021/09/17 06:27:13;;;;;;;2.53;1.90;;;;;;;;;;4666395;30;20240;-85
2021/09/17 06:29:42;;;;;;;2.92;2.50;;;;;;;;;;4666006;30;20200;-84
2021/09/17 06:32:09;;;;;;;3.28;2.97;;;;;;;;;;4666220;30;20223;-85
2021/09/17 06:34:37;;;;;;;2.80;2.45;;;;;;;;;;4666224;30;20216;-85
2021/09/17 06:37:05;;;;;;;2.60;2.40;;;;;;;;;;4666320;30;20258;-84
2021/09/17 06:39:32;;;;;;;3.22;3.03;;;;;;;;;;4700096;30;20214;-85
2021/09/17 06:42:00;;;;;;;2.92;2.70;;;;;;;;;;4700274;30;20681;-85
2021/09/17 06:44:27;;;;;;;2.30;2.10;;;;;;;;;;4700482;30;20672;-85
2021/09/17 06:46:56;;;;;;;2.75;2.55;;;;;;;;;;4700249;30;20244;-85
2021/09/17 06:49:24;;;;;;;2.20;2.10;;;;;;;;;;4700403;30;20203;-85
2021/09/17 06:51:52;;;;;;;2.42;2.22;;;;;;;;;;4700146;30;20215;-84
2021/09/17 06:54:19;;;;;;;2.45;2.25;;;;;;;;;;4700139;30;20195;-85
2021/09/17 06:56:47;;;;;;;2.42;2.25;;;;;;;;;;4700098;30;20234;-85
2021/09/17 06:59:14;;;;;;;1.95;1.85;;;;;;;;;;4700244;30;20225;-85
2021/09/17 07:01:42;;;;;;;1.73;1.63;;;;;;;;;;4700153;30;20220;-85
2021/09/17 07:04:11;;;;;;;2.25;2.10;;;;;;;;;;4700041;30;20202;-86
2021/09/17 07:06:38;;;;;;;1.88;1.77;;;;;;;;;;4699786;30;20237;-85
2021/09/17 07:09:06;;;;;;;2.55;2.40;;;;;;;;;;4700174;30;20222;-85
2021/09/17 07:11:34;;;;;;;3.33;2.97;;;;;;;;;;4699957;30;20195;-85
2021/09/17 07:14:02;;;;;;;2.15;2.00;;;;;;;;;;4699968;30;20234;-86
2021/09/17 07:16:29;;;;;;;2.35;2.00;;;;;;;;;;4700135;30;20288;-87
2021/09/17 07:18:57;;;;;;;2.40;2.17;;;;;;;;;;4700035;30;20282;-85
2021/09/17 07:21:28;;;;;;;2.58;2.38;;;;;;;;;;4699849;30;20652;-85
2021/09/17 07:23:55;;;;;;;1.88;1.77;;;;;;;;;;4699893;30;20652;-85
2021/09/17 07:26:22;;;;;;;1.88;1.77;;;;;;;;;;4699738;30;20201;-85
2021/09/17 07:28:50;;;;;;;1.63;1.52;;;;;;;;;;4700148;30;20198;-85
2021/09/17 07:31:17;;;;;;;1.60;1.50;;;;;;;;;;4699890;30;20681;-85
2021/09/17 07:33:45;;;;;;;2.83;2.63;;;;;;;;;;4699880;30;20225;-84
2021/09/17 07:36:12;;;;;;;3.03;2.75;;;;;;;;;;4699280;30;20662;-85
2021/09/17 07:38:42;;;;;;;2.78;2.55;;;;;;;;;;4699466;30;20715;-85
2021/09/17 07:41:10;;;;;;;2.25;2.08;;;;;;;;;;4699703;30;20304;-85
2021/09/17 07:43:39;;;;;;;4.90;3.63;;;;;;;;;;4699602;30;20195;-84
2021/09/17 07:46:06;;;;;;;3.35;3.05;;;;;;;;;;4699922;30;20294;-86
2021/09/17 07:48:34;;;;;;;3.88;3.58;;;;;;;;;;4699639;30;20233;-84
2021/09/17 07:51:02;;;;;;;5.60;3.60;;;;;;;;;;4700158;30;20282;-84
2021/09/17 07:53:30;;;;;;;3.45;3.10;;;;;;;;;;4699843;30;20215;-85
2021/09/17 07:55:58;;;;;;;3.72;2.92;;;;;;;;;;4699807;30;20187;-85
2021/09/17 07:58:26;;;;;;;2.85;2.65;;;;;;;;;;4699532;30;20714;-84
2021/09/17 08:00:53;;;;;;;2.47;2.28;;;;;;;;;;4699832;30;20198;-85
2021/09/17 08:03:28;;;;;;;3.03;2.83;;;;;;;;;;4699908;30;20294;-86
2021/09/17 08:05:56;;;;;;;2.72;2.53;;;;;;;;;;4699914;30;20206;-85
2021/09/17 08:08:23;;;;;;;2.75;2.50;;;;;;;;;;4699787;30;20227;-85
2021/09/17 08:10:51;;;;;;;2.90;2.70;;;;;;;;;;4699836;30;20205;-85
2021/09/17 08:13:20;;;;;;;2.80;2.60;;;;;;;;;;4699799;30;20222;-86
2021/09/17 08:15:47;;;;;;;4.35;3.92;;;;;;;;;;4699690;30;20275;-86
2021/09/17 08:18:15;;;;;;;6.03;4.55;;;;;;;;;;4699523;30;20230;-87
2021/09/17 08:20:48;;;;;;;3.72;3.42;;;;;;;;;;4699766;30;20242;-86
2021/09/17 08:23:17;;;;;;;3.50;3.20;;;;;;;;;;4699907;30;20199;-85
2021/09/17 08:25:46;;;;;;;3.25;2.80;;;;;;;;;;4699589;30;20226;-85
2021/09/17 08:28:14;;;;;;;2.08;1.98;;;;;;;;;;4699635;30;20237;-86
2021/09/17 08:30:42;;;;;;;2.80;2.60;;;;;;;;;;4699596;30;20215;-88
2021/09/17 08:33:10;;;;;;;1.85;1.75;;;;;;;;;;4699601;30;20221;-85
2021/09/17 08:35:37;;;;;;;3.50;3.20;;;;;;;;;;4699867;30;20198;-87
2021/09/17 08:38:05;;;;;;;3.33;3.10;;;;;;;;;;4699034;30;20270;-85
2021/09/17 08:40:33;;;;;;;7.43;6.78;;;;;;;;;;4699299;30;20211;-86
2021/09/17 08:43:02;;;;;;;10.45;9.35;;;;;;;;;;4699262;30;20221;-86
2021/09/17 08:45:30;;;;;;;7.82;7.03;;;;;;;;;;4699304;30;20222;-85
2021/09/17 08:48:00;;;;;;;9.00;7.93;;;;;;;;;;4701775;30;20233;-87
2021/09/17 08:50:27;;;;;;;9.02;7.93;;;;;;;;;;4702456;30;20201;-86
2021/09/17 08:52:55;;;;;;;10.07;9.00;;;;;;;;;;4702369;30;20207;-86
2021/09/17 08:55:22;;;;;;;10.50;9.00;;;;;;;;;;4702490;30;20206;-87
2021/09/17 08:57:50;;;;;;;10.95;8.57;;;;;;;;;;4701984;30;20703;-87
2021/09/17 09:00:40;;;;;;;7.68;6.95;;;;;;;;;;4702165;30;20219;-89
2021/09/17 09:03:10;;;;;;;8.23;7.47;;;;;;;;;;4702581;30;20322;-85
2021/09/17 09:05:41;;;;;;;6.07;5.53;;;;;;;;;;4702554;30;20297;-86
2021/09/17 09:08:08;;;;;;;8.68;7.80;;;;;;;;;;4702673;30;20269;-86
2021/09/17 09:10:36;;;;;;;9.60;8.15;;;;;;;;;;4702358;30;20245;-86
2021/09/17 09:13:06;;;;;;;8.18;7.40;;;;;;;;;;4701725;30;20226;-85
2021/09/17 09:15:35;;;;;;;6.03;5.10;;;;;;;;;;4702310;30;20199;-86
2021/09/17 09:18:06;;;;;;;7.00;6.30;;;;;;;;;;4701509;30;20226;-86
2021/09/17 09:20:36;;;;;;;6.90;6.30;;;;;;;;;;4701315;30;20293;-86
2021/09/17 09:23:17;;;;;;;6.35;5.25;;;;;;;;;;4702189;30;20195;-86
2021/09/17 09:26:02;;;;;;;4.72;4.32;;;;;;;;;;4702021;30;20199;-87
2021/09/17 09:28:33;;;;;;;5.32;4.53;;;;;;;;;;4701961;30;20230;-86
2021/09/17 09:31:07;;;;;;;4.40;4.00;;;;;;;;;;4701335;30;20225;-86
2021/09/17 09:33:37;;;;;;;6.75;5.57;;;;;;;;;;4701812;30;20314;-87
2021/09/17 09:36:09;;;;;;;7.63;6.90;;;;;;;;;;4701808;30;20664;-86
2021/09/17 09:38:44;;;;;;;6.00;5.40;;;;;;;;;;4701368;30;20757;-88
2021/09/17 09:41:15;;;;;;;7.90;7.10;;;;;;;;;;4701332;30;20206;-86
2021/09/17 09:43:51;;;;;;;7.90;7.10;;;;;;;;;;4701140;30;20204;-86
2021/09/17 09:46:41;;;;;;;6.15;5.22;;;;;;;;;;4701774;30;20209;-87
2021/09/17 09:49:13;;;;;;;5.03;4.57;;;;;;;;;;4701708;30;20225;-87
2021/09/17 09:51:55;;;;;;;10.38;9.35;;;;;;;;;;4701830;30;20224;-86
2021/09/17 09:54:27;;;;;;;8.18;7.47;;;;;;;;;;4701860;30;20223;-85
2021/09/17 09:56:55;;;;;;;6.40;5.70;;;;;;;;;;4702090;30;20226;-86
2021/09/17 09:59:27;;;;;;;7.63;6.80;;;;;;;;;;4701386;30;20241;-87
2021/09/17 10:01:56;;;;;;;6.68;6.00;;;;;;;;;;4701459;30;20210;-87
2021/09/17 10:04:25;;;;;;;7.85;7.10;;;;;;;;;;4701798;30;20570;-87
2021/09/17 10:07:03;;;;;;;7.53;6.82;;;;;;;;;;4701137;30;20234;-87
2021/09/17 10:09:32;;;;;;;7.70;6.90;;;;;;;;;;4701663;30;20297;-86
2021/09/17 10:12:00;;;;;;;9.13;7.57;;;;;;;;;;4701086;30;20194;-88
2021/09/17 10:14:30;;;;;;;6.95;6.25;;;;;;;;;;4701407;30;20223;-89
2021/09/17 10:16:58;;;;;;;5.60;5.10;;;;;;;;;;4701455;30;20234;-86
2021/09/17 10:19:27;;;;;;;7.28;6.68;;;;;;;;;;4701304;30;20221;-86
2021/09/17 10:21:59;;;;;;;6.38;5.78;;;;;;;;;;4702040;30;20278;-86
2021/09/17 10:24:40;;;;;;;6.97;6.38;;;;;;;;;;4701072;30;20281;-86
2021/09/17 10:27:13;;;;;;;7.47;6.82;;;;;;;;;;4700636;30;20245;-86
2021/09/17 10:29:44;;;;;;;6.53;5.93;;;;;;;;;;4701612;30;20191;-86
2021/09/17 10:32:35;;;;;;;9.00;7.07;;;;;;;;;;4701233;30;20201;-86
2021/09/17 10:35:10;;;;;;;7.35;6.65;;;;;;;;;;4700306;30;20242;-87
2021/09/17 10:37:53;;;;;;;6.60;6.00;;;;;;;;;;4700609;30;20250;-86
2021/09/17 10:40:50;;;;;;;7.53;6.75;;;;;;;;;;4700536;30;20218;-87
2021/09/17 10:43:30;;;;;;;8.68;6.63;;;;;;;;;;4700488;30;20202;-86
2021/09/17 10:45:59;;;;;;;8.25;7.13;;;;;;;;;;4700406;30;20205;-86
2021/09/17 10:48:29;;;;;;;6.57;5.97;;;;;;;;;;4700283;30;20249;-86
2021/09/17 10:51:03;;;;;;;6.53;5.90;;;;;;;;;;4700529;30;20215;-86
2021/09/17 10:54:00;;;;;;;5.38;4.88;;;;;;;;;;4701120;30;20213;-87
2021/09/17 10:56:28;;;;;;;5.25;4.75;;;;;;;;;;4701319;30;20202;-87
2021/09/17 10:59:21;;;;;;;5.15;4.63;;;;;;;;;;4700622;30;20201;-86
2021/09/17 11:01:54;;;;;;;4.78;4.35;;;;;;;;;;4701430;30;20262;-86
2021/09/17 11:04:25;;;;;;;5.15;4.75;;;;;;;;;;4700979;30;20666;-87
2021/09/17 11:06:54;;;;;;;5.00;4.50;;;;;;;;;;4700631;30;20611;-89
2021/09/17 11:09:43;;;;;;;5.30;4.80;;;;;;;;;;4700023;30;20215;-86
2021/09/17 11:12:20;;;;;;;5.05;4.65;;;;;;;;;;4700101;30;20206;-86
2021/09/17 11:15:08;;;;;;;5.25;4.75;;;;;;;;;;4700033;30;20241;-87
2021/09/17 11:17:38;;;;;;;5.53;5.03;;;;;;;;;;4699113;30;20245;-87
2021/09/17 11:20:08;;;;;;;6.18;5.57;;;;;;;;;;4700504;30;20191;-87
2021/09/17 11:22:57;;;;;;;5.65;4.65;;;;;;;;;;4700851;30;20218;-87
2021/09/17 11:25:36;;;;;;;5.20;4.70;;;;;;;;;;4701031;30;20295;-87
2021/09/17 11:28:06;;;;;;;4.03;3.72;;;;;;;;;;4700594;30;20715;-87
2021/09/17 11:30:36;;;;;;;3.60;3.30;;;;;;;;;;4701295;30;20233;-89
2021/09/17 11:33:18;;;;;;;5.15;4.63;;;;;;;;;;4700346;30;20317;-86
2021/09/17 11:35:47;;;;;;;5.22;4.70;;;;;;;;;;4699991;30;20214;-86
2021/09/17 11:38:14;;;;;;;5.40;4.90;;;;;;;;;;4700564;30;20230;-87
2021/09/17 11:40:55;;;;;;;8.18;6.93;;;;;;;;;;4700646;30;20197;-88
2021/09/17 11:43:22;;;;;;;7.18;6.45;;;;;;;;;;4700468;30;20193;-87
2021/09/17 11:45:51;;;;;;;4.88;4.20;;;;;;;;;;4701250;30;20616;-86
2021/09/17 11:48:22;;;;;;;5.43;4.93;;;;;;;;;;4700726;30;20241;-88
2021/09/17 11:50:50;;;;;;;4.30;3.90;;;;;;;;;;4700595;30;20211;-86
2021/09/17 11:53:18;;;;;;;5.07;4.68;;;;;;;;;;4700439;30;20187;-86
2021/09/17 11:55:46;;;;;;;4.32;3.92;;;;;;;;;;4700356;30;20621;-86
2021/09/17 11:58:16;;;;;;;4.07;3.60;;;;;;;;;;4701037;30;20236;-87
2021/09/17 12:00:44;;;;;;;4.35;3.88;;;;;;;;;;4700370;30;20211;-86
2021/09/17 12:03:12;;;;;;;5.28;4.47;;;;;;;;;;4699693;30;20214;-87
2021/09/17 12:05:44;;;;;;;4.00;3.70;;;;;;;;;;4700081;30;20679;-86
2021/09/17 12:08:12;;;;;;;4.80;4.40;;;;;;;;;;4699947;30;20234;-86
2021/09/17 12:10:44;;;;;;;4.53;4.18;;;;;;;;;;4699935;30;20216;-87
2021/09/17 12:13:13;;;;;;;6.43;5.20;;;;;;;;;;4699917;30;20217;-87
2021/09/17 12:15:44;;;;;;;5.30;4.80;;;;;;;;;;4698826;30;20242;-88
2021/09/17 12:18:17;;;;;;;5.43;4.93;;;;;;;;;;4698965;30;20245;-88
2021/09/17 12:20:47;;;;;;;6.15;5.28;;;;;;;;;;4699957;30;20584;-88
2021/09/17 12:23:17;;;;;;;5.40;4.90;;;;;;;;;;4702663;30;20226;-88
2021/09/17 12:25:46;;;;;;;5.22;4.72;;;;;;;;;;4702469;30;20218;-87
2021/09/17 12:28:19;;;;;;;3.15;2.90;;;;;;;;;;4702835;30;20239;-88
2021/09/17 12:30:49;;;;;;;4.28;3.88;;;;;;;;;;4702857;30;20231;-87
2021/09/17 12:33:22;;;;;;;4.45;4.13;;;;;;;;;;4704522;30;20215;-87
2021/09/17 12:35:51;;;;;;;4.45;4.05;;;;;;;;;;4707451;30;20240;-87
2021/09/17 12:38:21;;;;;;;6.07;4.53;;;;;;;;;;4703415;30;20715;-88
2021/09/17 12:40:51;;;;;;;5.10;4.60;;;;;;;;;;4708570;30;20210;-87
2021/09/17 12:43:26;;;;;;;4.72;4.32;;;;;;;;;;4702126;30;20585;-88
2021/09/17 12:46:01;;;;;;;4.30;3.90;;;;;;;;;;4702241;30;20217;-88
2021/09/17 12:48:30;;;;;;;4.28;3.88;;;;;;;;;;4702423;30;20324;-88
2021/09/17 12:50:58;;;;;;;3.20;3.00;;;;;;;;;;4703158;30;20198;-89
2021/09/17 12:53:31;;;;;;;3.88;3.47;;;;;;;;;;4702851;30;20218;-89
2021/09/17 12:56:05;;;;;;;3.60;3.30;;;;;;;;;;4702627;30;20719;-87
2021/09/17 12:58:33;;;;;;;4.03;3.72;;;;;;;;;;4702718;30;20231;-88
2021/09/17 13:01:04;;;;;;;3.30;3.00;;;;;;;;;;4712699;30;20226;-89
2021/09/17 13:03:32;;;;;;;3.95;3.22;;;;;;;;;;4712471;30;20702;-87
2021/09/17 13:06:01;;;;;;;4.43;4.03;;;;;;;;;;4709174;30;20210;-88
2021/09/17 13:08:29;;;;;;;3.90;3.40;;;;;;;;;;4703552;30;20238;-88
2021/09/17 13:10:58;;;;;;;3.95;3.65;;;;;;;;;;4708931;30;20629;-88
2021/09/17 13:13:25;;;;;;;4.38;3.88;;;;;;;;;;4703073;30;20218;-88
2021/09/17 13:15:53;;;;;;;5.20;4.80;;;;;;;;;;4701560;30;20234;-85
2021/09/17 13:18:22;;;;;;;4.50;4.10;;;;;;;;;;4701513;30;20238;-86
2021/09/17 13:20:50;;;;;;;3.95;3.65;;;;;;;;;;4701567;30;20612;-87
2021/09/17 13:23:18;;;;;;;4.28;3.90;;;;;;;;;;4702260;30;20211;-84
2021/09/17 13:25:48;;;;;;;3.97;3.65;;;;;;;;;;4701804;30;20574;-86
2021/09/17 13:28:16;;;;;;;4.07;3.72;;;;;;;;;;4698506;30;20226;-86
2021/09/17 13:30:44;;;;;;;3.50;3.20;;;;;;;;;;4705692;30;20225;-86
2021/09/17 13:33:13;;;;;;;3.60;3.30;;;;;;;;;;4716139;30;20665;-86
2021/09/17 13:35:44;;;;;;;4.85;3.72;;;;;;;;;;4717068;30;20803;-86
2021/09/17 13:38:13;;;;;;;3.42;3.20;;;;;;;;;;4716390;30;20261;-86
2021/09/17 13:40:41;;;;;;;3.35;3.13;;;;;;;;;;4708632;30;20226;-86
2021/09/17 13:43:10;;;;;;;3.08;2.88;;;;;;;;;;4699460;30;20708;-86
2021/09/17 13:45:37;;;;;;;4.35;3.50;;;;;;;;;;4699556;30;20221;-87
2021/09/17 13:48:05;;;;;;;3.38;3.08;;;;;;;;;;4700243;30;20243;-87
2021/09/17 13:50:33;;;;;;;4.38;3.63;;;;;;;;;;4700237;30;20230;-88
2021/09/17 13:53:02;;;;;;;3.17;2.88;;;;;;;;;;4699220;30;20238;-86
2021/09/17 13:55:38;;;;;;;4.18;3.80;;;;;;;;;;4699542;30;20201;-86
2021/09/17 13:58:06;;;;;;;6.93;3.90;;;;;;;;;;4701384;30;20242;-85
2021/09/17 14:00:43;;;;;;;4.15;3.80;;;;;;;;;;4701349;30;20203;-86
2021/09/17 14:03:11;;;;;;;5.40;4.90;;;;;;;;;;4701021;30;20206;-85
2021/09/17 14:05:38;;;;;;;4.93;4.25;;;;;;;;;;4700740;30;20626;-85
2021/09/17 14:08:07;;;;;;;4.53;4.13;;;;;;;;;;4700876;30;20234;-86
2021/09/17 14:10:36;;;;;;;3.92;3.53;;;;;;;;;;4700431;30;20202;-86
2021/09/17 14:13:04;;;;;;;4.15;3.85;;;;;;;;;;4698658;30;20593;-86
2021/09/17 14:15:33;;;;;;;4.05;3.65;;;;;;;;;;4700515;30;20222;-85
2021/09/17 14:18:03;;;;;;;7.15;4.43;;;;;;;;;;4698909;30;20249;-85
2021/09/17 14:20:31;;;;;;;3.60;3.30;;;;;;;;;;4700927;30;20206;-85
2021/09/17 14:22:59;;;;;;;4.93;4.43;;;;;;;;;;4700972;30;20682;-84
2021/09/17 14:25:28;;;;;;;4.68;3.80;;;;;;;;;;4700918;30;20191;-86
2021/09/17 14:27:55;;;;;;;5.00;4.50;;;;;;;;;;4700858;30;20231;-85
2021/09/17 14:30:23;;;;;;;5.45;4.95;;;;;;;;;;4694636;30;20208;-86
2021/09/17 14:32:56;;;;;;;4.72;4.32;;;;;;;;;;4683501;30;20195;-86
2021/09/17 14:35:24;;;;;;;4.00;3.70;;;;;;;;;;4684030;30;20560;-85
2021/09/17 14:37:52;;;;;;;3.67;3.38;;;;;;;;;;4683062;30;20357;-85
2021/09/17 14:40:20;;;;;;;3.70;3.40;;;;;;;;;;4683336;30;20203;-85
2021/09/17 14:42:51;;;;;;;4.50;4.10;;;;;;;;;;4683071;30;20229;-86
2021/09/17 14:45:18;;;;;;;5.78;5.25;;;;;;;;;;4682660;30;20205;-86
2021/09/17 14:47:46;;;;;;;5.03;4.53;;;;;;;;;;4683550;30;20238;-86
2021/09/17 14:50:15;;;;;;;4.35;3.97;;;;;;;;;;4682280;30;20219;-85
2021/09/17 14:52:43;;;;;;;4.38;3.97;;;;;;;;;;4682987;30;20222;-86
2021/09/17 14:55:11;;;;;;;3.95;3.65;;;;;;;;;;4683468;30;20203;-84
2021/09/17 14:57:40;;;;;;;3.83;3.53;;;;;;;;;;4682785;30;20243;-86
2021/09/17 15:00:16;;;;;;;2.78;2.58;;;;;;;;;;4682778;30;20671;-85
2021/09/17 15:02:43;;;;;;;3.05;2.85;;;;;;;;;;4682675;30;20239;-86